createdAt,value
2019-02-11T00:03:49.156Z,71.30
2019-02-11T00:06:29.264Z,71.10
2019-02-11T00:09:09.571Z,70.80
2019-02-11T00:11:37.528Z,72.00
2019-02-11T00:14:24.583Z,74.30
2019-02-11T00:17:11.769Z,74.60
2019-02-11T00:19:51.825Z,75.10
2019-02-11T00:22:19.409Z,75.20
2019-02-11T00:25:06.466Z,76.00
2019-02-11T00:27:53.488Z,75.50
2019-02-11T00:30:34.337Z,75.90
2019-02-11T00:33:14.556Z,75.30
2019-02-11T00:35:54.680Z,75.00
2019-02-11T00:38:34.848Z,74.50
2019-02-11T00:41:14.961Z,74.10
2019-02-11T00:43:55.084Z,73.00
2019-02-11T00:46:35.280Z,73.80
2019-02-11T00:49:15.701Z,73.20
2019-02-11T00:51:56.032Z,73.00
2019-02-11T00:54:35.977Z,73.20
2019-02-11T00:57:16.320Z,72.80
2019-02-11T00:59:55.997Z,72.40
2019-02-11T01:02:36.232Z,71.50
2019-02-11T01:05:16.189Z,71.70
2019-02-11T01:07:56.114Z,71.90
2019-02-11T01:10:36.428Z,70.80
2019-02-11T01:13:16.516Z,71.30
2019-02-11T01:15:56.572Z,73.10
2019-02-11T01:18:36.400Z,74.30
2019-02-11T01:21:16.659Z,76.50
2019-02-11T01:23:56.805Z,76.90
2019-02-11T01:26:37.169Z,76.70
2019-02-11T01:29:17.381Z,76.90
2019-02-11T01:31:57.536Z,75.90
2019-02-11T01:34:37.663Z,75.90
2019-02-11T01:37:17.968Z,76.30
2019-02-11T01:39:58.096Z,76.60
2019-02-11T01:42:38.320Z,75.60
2019-02-11T01:45:18.332Z,76.00
2019-02-11T01:47:58.714Z,76.20
2019-02-11T01:50:38.711Z,76.60
2019-02-11T01:53:18.847Z,76.60
2019-02-11T01:55:58.981Z,76.40
2019-02-11T01:58:38.872Z,77.10
2019-02-11T02:01:19.065Z,77.40
2019-02-11T02:03:59.006Z,77.20
2019-02-11T02:06:39.065Z,77.40
2019-02-11T02:09:19.044Z,78.80
2019-02-11T02:11:59.251Z,79.90
2019-02-11T02:14:39.240Z,80.20
2019-02-11T02:17:19.165Z,80.60
2019-02-11T02:19:59.512Z,81.40
2019-02-11T02:22:39.704Z,80.60
2019-02-11T02:25:19.805Z,80.30
2019-02-11T02:27:59.817Z,79.70
2019-02-11T02:30:39.870Z,79.30
2019-02-11T02:33:20.025Z,79.30
2019-02-11T02:36:00.346Z,79.10
2019-02-11T02:38:40.312Z,78.80
2019-02-11T02:41:22.691Z,78.90
2019-02-11T02:44:02.640Z,79.10
2019-02-11T02:46:42.809Z,80.30
2019-02-11T02:49:22.835Z,80.90
2019-02-11T02:52:02.924Z,81.10
2019-02-11T02:54:42.899Z,81.80
2019-02-11T02:57:23.033Z,83.70
2019-02-11T03:00:03.248Z,83.20
2019-02-11T03:02:43.534Z,83.30
2019-02-11T03:05:23.904Z,84.60
2019-02-11T03:08:03.951Z,84.50
2019-02-11T03:10:32.541Z,85.20
2019-02-11T03:13:19.531Z,86.70
2019-02-11T03:15:59.403Z,86.90
2019-02-11T03:18:39.469Z,87.40
2019-02-11T03:21:19.632Z,87.80
2019-02-11T03:23:59.812Z,87.70
2019-02-11T03:26:39.796Z,88.30
2019-02-11T03:29:19.950Z,89.20
2019-02-11T03:32:00.255Z,89.80
2019-02-11T03:34:40.066Z,89.80
2019-02-11T03:37:20.108Z,89.70
2019-02-11T03:40:00.462Z,90.00
2019-02-11T03:42:40.418Z,89.90
2019-02-11T03:45:20.574Z,90.10
2019-02-11T03:48:00.667Z,90.60
2019-02-11T03:50:40.769Z,90.70
2019-02-11T03:53:20.938Z,91.10
2019-02-11T03:56:01.115Z,91.40
2019-02-11T03:58:41.465Z,91.80
2019-02-11T04:01:21.541Z,91.80
2019-02-11T04:04:01.757Z,91.80
2019-02-11T04:06:42.369Z,91.80
2019-02-11T04:09:22.004Z,91.50
2019-02-11T04:12:02.042Z,92.10
2019-02-11T04:14:42.581Z,92.20
2019-02-11T04:17:22.909Z,92.70
2019-02-11T04:20:03.068Z,92.70
2019-02-11T04:22:43.601Z,93.10
2019-02-11T04:25:23.519Z,93.00
2019-02-11T04:28:03.712Z,93.20
2019-02-11T04:30:43.804Z,93.10
2019-02-11T04:33:23.792Z,93.40
2019-02-11T04:36:03.928Z,93.50
2019-02-11T04:38:44.374Z,93.30
2019-02-11T04:41:24.424Z,93.20
2019-02-11T04:44:04.609Z,93.00
2019-02-11T04:46:44.869Z,92.30
2019-02-11T04:49:25.084Z,92.80
2019-02-11T04:52:05.241Z,93.20
2019-02-11T04:54:45.435Z,93.30
2019-02-11T04:57:25.591Z,93.40
2019-02-11T05:00:05.463Z,93.60
2019-02-11T05:02:45.613Z,93.40
2019-02-11T05:05:26.007Z,93.30
2019-02-11T05:08:06.320Z,93.10
2019-02-11T05:10:46.270Z,92.70
2019-02-11T05:13:26.537Z,91.40
2019-02-11T05:16:06.789Z,91.40
2019-02-11T05:18:47.123Z,91.00
2019-02-11T05:21:27.151Z,90.40
2019-02-11T05:24:07.567Z,90.40
2019-02-11T05:26:47.644Z,90.40
2019-02-11T05:29:27.922Z,90.40
2019-02-11T05:32:07.889Z,90.60
2019-02-11T05:34:47.990Z,90.60
2019-02-11T05:37:28.381Z,90.70
2019-02-11T05:40:08.401Z,91.00
2019-02-11T05:42:48.605Z,91.00
2019-02-11T05:45:28.696Z,90.70
2019-02-11T05:48:08.647Z,90.70
2019-02-11T05:50:48.829Z,90.30
2019-02-11T05:53:28.881Z,90.10
2019-02-11T05:56:09.011Z,90.30
2019-02-11T05:58:49.349Z,90.30
2019-02-11T06:01:29.334Z,89.30
2019-02-11T06:04:09.512Z,89.20
2019-02-11T06:06:49.667Z,87.80
2019-02-11T06:09:29.825Z,87.30
2019-02-11T06:12:10.074Z,87.30
2019-02-11T06:14:50.064Z,86.50
2019-02-11T06:17:30.264Z,87.10
2019-02-11T06:20:10.766Z,87.50
2019-02-11T06:22:50.700Z,87.50
2019-02-11T06:25:30.688Z,88.50
2019-02-11T06:28:10.873Z,88.70
2019-02-11T06:30:50.956Z,89.00
2019-02-11T06:33:31.209Z,88.30
2019-02-11T06:36:12.809Z,87.60
2019-02-11T06:38:52.481Z,86.80
2019-02-11T06:41:32.600Z,86.20
2019-02-11T06:44:12.896Z,85.80
2019-02-11T06:46:53.022Z,85.80
2019-02-11T06:49:33.038Z,86.10
2019-02-11T06:52:13.347Z,86.30
2019-02-11T06:54:54.391Z,87.00
2019-02-11T06:57:34.586Z,86.40
2019-02-11T07:00:14.646Z,86.40
2019-02-11T07:02:42.492Z,87.20
2019-02-11T07:05:10.069Z,88.90
2019-02-11T07:07:37.716Z,89.80
2019-02-11T07:10:06.232Z,90.30
2019-02-11T07:12:33.855Z,90.10
2019-02-11T07:15:01.464Z,88.70
2019-02-11T07:17:29.432Z,88.80
2019-02-11T07:19:57.532Z,89.30
2019-02-11T07:22:25.203Z,90.10
2019-02-11T07:24:52.845Z,90.20
2019-02-11T07:27:20.528Z,91.10
2019-02-11T07:29:48.184Z,91.10
2019-02-11T07:32:15.881Z,91.30
2019-02-11T07:34:43.636Z,91.40
2019-02-11T07:37:11.272Z,91.70
2019-02-11T07:39:38.884Z,92.00
2019-02-11T07:42:23.343Z,92.40
2019-02-11T07:45:30.401Z,92.60
2019-02-11T07:48:17.515Z,92.40
2019-02-11T07:51:04.549Z,92.20
2019-02-11T07:53:44.493Z,92.10
2019-02-11T07:56:24.612Z,92.10
2019-02-11T07:59:04.800Z,92.00
2019-02-11T08:01:45.169Z,92.20
2019-02-11T08:04:25.891Z,92.60
2019-02-11T08:06:54.811Z,91.80
2019-02-11T08:09:41.952Z,91.50
2019-02-11T08:12:28.953Z,91.40
2019-02-11T08:14:57.131Z,91.30
2019-02-11T08:17:44.352Z,90.50
2019-02-11T08:20:31.361Z,90.40
2019-02-11T08:22:58.990Z,90.30
2019-02-11T08:25:27.428Z,90.80
2019-02-11T08:27:55.061Z,90.80
2019-02-11T08:30:22.784Z,91.00
2019-02-11T08:32:50.425Z,90.70
2019-02-11T08:35:18.019Z,90.30
2019-02-11T08:37:45.747Z,89.20
2019-02-11T08:40:13.356Z,89.70
2019-02-11T08:42:40.964Z,90.30
2019-02-11T08:45:08.596Z,90.60
2019-02-11T08:47:36.191Z,88.40
2019-02-11T08:50:04.209Z,88.90
2019-02-11T08:52:31.783Z,87.40
2019-02-11T08:54:59.384Z,84.00
2019-02-11T08:57:27.012Z,84.40
2019-02-11T08:59:54.684Z,85.30
2019-02-11T09:02:22.296Z,85.50
2019-02-11T09:04:49.920Z,85.80
2019-02-11T09:07:17.656Z,86.70
2019-02-11T09:09:45.328Z,86.40
2019-02-11T09:12:12.976Z,86.00
2019-02-11T09:14:40.624Z,83.80
2019-02-11T09:17:10.283Z,82.40
2019-02-11T09:19:37.592Z,82.40
2019-02-11T09:22:07.518Z,82.70
2019-02-11T09:24:34.928Z,81.90
2019-02-11T09:27:02.540Z,82.30
2019-02-11T09:29:30.143Z,80.50
2019-02-11T09:31:57.745Z,81.40
2019-02-11T09:34:25.328Z,81.70
2019-02-11T09:36:52.916Z,82.50
2019-02-11T09:39:20.552Z,82.40
2019-02-11T09:41:48.136Z,80.70
2019-02-11T09:44:15.771Z,79.90
2019-02-11T09:46:43.588Z,80.80
2019-02-11T09:49:11.232Z,78.50
2019-02-11T09:51:42.335Z,79.00
2019-02-11T09:54:09.944Z,79.50
2019-02-11T09:56:37.823Z,78.50
2019-02-11T09:59:05.576Z,76.00
2019-02-11T10:01:33.300Z,76.90
2019-02-11T10:04:00.867Z,76.60
2019-02-11T10:06:28.868Z,77.00
2019-02-11T10:08:56.444Z,76.10
2019-02-11T10:11:24.011Z,76.80
2019-02-11T10:13:51.608Z,76.80
2019-02-11T10:16:19.246Z,76.20
2019-02-11T10:18:46.925Z,76.40
2019-02-11T10:21:14.688Z,76.30
2019-02-11T10:23:42.276Z,76.30
2019-02-11T10:26:09.884Z,76.90
2019-02-11T10:28:37.480Z,76.10
2019-02-11T10:31:05.075Z,75.20
2019-02-11T10:33:52.192Z,76.00
2019-02-11T10:36:43.113Z,74.10
2019-02-11T10:39:23.002Z,74.10
2019-02-11T10:42:03.128Z,73.70
2019-02-11T10:44:43.522Z,73.30
2019-02-11T10:47:23.472Z,72.30
2019-02-11T10:50:04.105Z,72.80
2019-02-11T10:52:43.709Z,71.90
2019-02-11T10:55:23.963Z,71.50
2019-02-11T10:58:04.000Z,71.10
2019-02-11T11:00:45.093Z,71.30
2019-02-11T11:03:25.345Z,70.50
2019-02-11T11:06:05.332Z,72.00
2019-02-11T11:08:45.326Z,71.70
2019-02-11T11:11:25.152Z,72.00
2019-02-11T11:14:05.211Z,72.80
2019-02-11T11:16:45.309Z,73.90
2019-02-11T11:19:25.290Z,73.50
2019-02-11T11:21:52.912Z,73.80
2019-02-11T11:24:20.620Z,71.60
2019-02-11T11:26:48.503Z,72.50
2019-02-11T11:29:16.111Z,71.30
2019-02-11T11:31:43.684Z,72.00
2019-02-11T11:34:11.403Z,72.50
2019-02-11T11:36:39.108Z,71.60
2019-02-11T11:39:16.672Z,70.10
2019-02-11T11:41:44.331Z,70.70
2019-02-11T11:44:11.973Z,69.80
2019-02-11T11:46:46.905Z,70.10
2019-02-11T11:49:08.967Z,68.60
2019-02-11T11:51:36.617Z,69.30
2019-02-11T11:54:04.199Z,69.70
2019-02-11T11:56:31.789Z,69.50
2019-02-11T11:58:59.488Z,68.40
2019-02-11T12:01:27.124Z,69.40
2019-02-11T12:03:55.300Z,70.10
2019-02-11T12:06:25.188Z,70.80
2019-02-11T12:08:52.461Z,70.10
2019-02-11T12:11:20.398Z,71.40
2019-02-11T12:13:47.968Z,70.40
2019-02-11T12:16:15.714Z,69.50
2019-02-11T12:18:43.367Z,71.60
2019-02-11T12:21:10.991Z,72.80
2019-02-11T12:23:38.567Z,72.60
2019-02-11T12:26:06.158Z,72.70
2019-02-11T12:28:33.766Z,72.70
2019-02-11T12:31:01.366Z,72.10
2019-02-11T12:33:29.064Z,72.50
2019-02-11T12:35:56.643Z,72.50
2019-02-11T12:38:43.659Z,72.10
2019-02-11T12:41:24.066Z,72.00
2019-02-11T12:44:04.124Z,71.70
2019-02-11T12:46:44.270Z,72.10
2019-02-11T12:49:24.346Z,71.60
2019-02-11T12:52:04.608Z,70.90
2019-02-11T12:54:45.021Z,69.10
2019-02-11T12:57:12.670Z,69.20
2019-02-11T12:59:59.697Z,68.40
2019-02-11T13:02:39.976Z,68.30
2019-02-11T13:05:22.878Z,67.40
2019-02-11T13:08:02.076Z,66.40
2019-02-11T13:10:42.142Z,65.40
2019-02-11T13:13:22.279Z,66.30
2019-02-11T13:16:03.480Z,65.90
2019-02-11T13:18:44.049Z,65.40
2019-02-11T13:21:23.986Z,66.70
2019-02-11T13:24:04.053Z,65.90
2019-02-11T13:26:44.272Z,64.40
2019-02-11T13:29:24.520Z,64.40
2019-02-11T13:32:04.575Z,65.40
2019-02-11T13:34:45.005Z,67.30
2019-02-11T13:37:24.929Z,68.50
2019-02-11T13:40:05.231Z,68.80
2019-02-11T13:42:45.600Z,69.30
2019-02-11T13:45:25.483Z,69.30
2019-02-11T13:48:05.475Z,68.00
2019-02-11T13:53:57.009Z,68.30
2019-02-11T13:56:37.065Z,68.70
2019-02-11T13:59:17.263Z,68.30
2019-02-11T14:01:57.373Z,68.60
2019-02-11T14:04:37.331Z,68.30
2019-02-11T14:07:17.488Z,66.90
2019-02-11T14:13:05.625Z,64.90
2019-02-11T14:15:52.916Z,65.40
2019-02-11T14:18:33.178Z,65.10
2019-02-11T14:21:00.998Z,66.40
2019-02-11T14:23:48.123Z,66.60
2019-02-11T14:26:35.141Z,66.60
2019-02-11T14:29:15.358Z,67.60
2019-02-11T14:31:55.180Z,67.30
2019-02-11T14:34:35.365Z,67.00
2019-02-11T14:37:16.053Z,67.00
2019-02-11T14:39:55.647Z,67.70
2019-02-11T14:42:35.910Z,67.40
2019-02-11T14:45:15.986Z,67.70
2019-02-11T14:47:56.097Z,64.30
2019-02-11T14:50:36.328Z,63.70
2019-02-11T14:53:16.750Z,63.70
2019-02-11T14:55:56.801Z,63.70
2019-02-11T14:58:36.840Z,63.60
2019-02-11T15:01:17.039Z,63.70
2019-02-11T15:03:57.031Z,65.00
2019-02-11T15:06:38.010Z,63.80
2019-02-11T15:09:18.300Z,64.10
2019-02-11T15:11:58.373Z,64.10
2019-02-11T15:14:38.604Z,64.30
2019-02-11T15:17:18.773Z,62.90
2019-02-11T15:19:58.708Z,62.80
2019-02-11T15:22:39.207Z,62.60
2019-02-11T15:25:19.304Z,62.90
2019-02-11T15:27:59.368Z,64.20
2019-02-11T15:30:39.381Z,65.70
2019-02-11T15:33:19.575Z,66.70
2019-02-11T15:35:59.577Z,67.70
2019-02-11T15:38:39.595Z,69.00
2019-02-11T15:41:19.537Z,69.70
2019-02-11T15:43:59.242Z,70.50
2019-02-11T15:46:39.337Z,69.60
2019-02-11T15:49:19.592Z,70.00
2019-02-11T15:51:59.748Z,71.20
2019-02-11T15:54:39.871Z,71.50
2019-02-11T15:57:20.212Z,71.50
2019-02-11T16:00:00.441Z,71.60
2019-02-11T16:02:40.426Z,71.80
2019-02-11T16:05:20.861Z,71.80
2019-02-11T16:08:00.912Z,71.50
2019-02-11T16:10:41.091Z,71.10
2019-02-11T16:13:22.727Z,70.90
2019-02-11T16:16:02.609Z,72.20
2019-02-11T16:18:51.509Z,71.60
2019-02-11T16:21:24.879Z,71.70
2019-02-11T16:24:05.268Z,71.70
2019-02-11T16:26:46.272Z,72.00
2019-02-11T16:29:25.859Z,72.10
2019-02-11T16:32:05.993Z,72.20
2019-02-11T16:34:46.149Z,71.40
2019-02-11T16:37:26.301Z,71.40
2019-02-11T16:39:53.978Z,70.30
2019-02-11T16:42:41.061Z,69.60
2019-02-11T16:45:28.075Z,69.40
2019-02-11T16:48:08.768Z,69.60
2019-02-11T16:50:48.612Z,70.80
2019-02-11T16:53:28.672Z,71.60
2019-02-11T16:56:08.928Z,73.20
2019-02-11T16:58:49.445Z,72.50
2019-02-11T17:01:29.500Z,73.80
2019-02-11T17:03:57.150Z,74.50
2019-02-11T17:06:24.713Z,75.40
2019-02-11T17:08:52.303Z,75.80
2019-02-11T17:11:20.001Z,76.20
2019-02-11T17:13:47.711Z,76.70
2019-02-11T17:16:15.599Z,76.70
2019-02-11T17:19:09.093Z,76.80
2019-02-11T17:21:32.510Z,77.40
2019-02-11T17:24:19.511Z,78.00
2019-02-11T17:27:00.108Z,78.20
2019-02-11T17:29:40.198Z,79.20
2019-02-11T17:32:20.389Z,79.70
2019-02-11T17:35:00.340Z,80.00
2019-02-11T17:37:40.449Z,79.80
2019-02-11T17:40:20.819Z,81.40
2019-02-11T17:43:00.907Z,81.80
2019-02-11T17:45:41.061Z,82.20
2019-02-11T17:48:22.081Z,81.90
2019-02-11T17:51:02.464Z,82.20
2019-02-11T17:53:42.781Z,82.00
2019-02-11T17:56:23.111Z,82.20
2019-02-11T17:59:02.968Z,82.20
2019-02-11T18:01:43.176Z,81.60
2019-02-11T18:04:23.245Z,81.70
2019-02-11T18:07:03.398Z,81.10
2019-02-11T18:09:43.537Z,80.80
2019-02-11T18:12:24.923Z,81.10
2019-02-11T18:15:05.809Z,81.20
2019-02-11T18:17:46.393Z,82.50
2019-02-11T18:20:26.575Z,82.90
2019-02-11T18:23:06.642Z,83.20
2019-02-11T18:25:46.988Z,85.50
2019-02-11T18:28:26.800Z,85.50
2019-02-11T18:31:07.412Z,86.60
2019-02-11T18:33:47.278Z,86.90
2019-02-11T18:36:27.304Z,87.80
2019-02-11T18:39:07.597Z,88.10
2019-02-11T18:41:47.652Z,89.20
2019-02-11T18:44:27.785Z,89.70
2019-02-11T18:47:07.856Z,90.20
2019-02-11T18:49:47.910Z,90.60
2019-02-11T18:52:27.819Z,90.70
2019-02-11T18:55:07.788Z,91.20
2019-02-11T18:57:47.974Z,91.40
2019-02-11T19:00:28.108Z,91.60
2019-02-11T19:03:08.213Z,91.80
2019-02-11T19:05:48.250Z,91.90
2019-02-11T19:08:28.433Z,91.80
2019-02-11T19:11:08.422Z,92.00
2019-02-11T19:13:48.535Z,92.10
2019-02-11T19:19:43.183Z,92.20
2019-02-11T19:22:23.358Z,92.50
2019-02-11T19:25:03.276Z,92.40
2019-02-11T19:27:43.453Z,92.50
2019-02-11T19:30:23.705Z,92.70
2019-02-11T19:33:03.627Z,92.60
2019-02-11T19:35:43.652Z,92.90
2019-02-11T19:38:23.925Z,93.00
2019-02-11T19:41:04.408Z,92.90
2019-02-11T19:43:44.821Z,92.90
2019-02-11T19:46:25.001Z,93.10
2019-02-11T19:49:05.292Z,93.20
2019-02-11T19:51:45.462Z,93.20
2019-02-11T19:54:25.580Z,93.20
2019-02-11T19:57:05.816Z,93.20
2019-02-11T19:59:46.110Z,93.50
2019-02-11T20:02:26.306Z,93.40
2019-02-11T20:05:06.369Z,93.60
2019-02-11T20:07:48.426Z,93.60
2019-02-11T20:10:28.793Z,93.40
2019-02-11T20:13:09.034Z,93.70
2019-02-11T20:15:49.238Z,93.90
2019-02-11T20:18:29.418Z,94.00
2019-02-11T20:21:09.492Z,93.70
2019-02-11T20:23:49.623Z,93.70
2019-02-11T20:26:29.944Z,93.90
2019-02-11T20:29:10.196Z,93.90
2019-02-11T20:31:50.413Z,93.80
2019-02-11T20:34:30.600Z,93.70
2019-02-11T20:37:10.904Z,93.80
2019-02-11T20:39:51.077Z,93.80
2019-02-11T20:45:30.192Z,93.40
2019-02-11T20:48:10.405Z,93.80
2019-02-11T20:50:50.597Z,93.80
2019-02-11T20:53:30.464Z,93.80
2019-02-11T20:56:10.774Z,93.70
2019-02-11T20:58:51.252Z,93.80
2019-02-11T21:01:31.232Z,94.00
2019-02-11T21:04:11.465Z,93.70
2019-02-11T21:06:52.071Z,93.80
2019-02-11T21:09:31.894Z,93.50
2019-02-11T21:12:11.838Z,93.60
2019-02-11T21:14:51.760Z,93.60
2019-02-11T21:17:32.827Z,93.50
2019-02-11T21:20:17.555Z,93.50
2019-02-11T21:22:52.921Z,93.40
2019-02-11T21:25:39.927Z,93.30
2019-02-11T21:28:20.024Z,93.30
2019-02-11T21:31:00.033Z,93.10
2019-02-11T21:33:40.164Z,93.10
2019-02-11T21:36:20.384Z,93.00
2019-02-11T21:39:00.636Z,93.00
2019-02-11T21:41:40.688Z,93.00
2019-02-11T21:44:21.012Z,92.90
2019-02-11T21:47:01.020Z,93.20
2019-02-11T21:49:41.261Z,93.10
2019-02-11T21:52:21.545Z,93.00
2019-02-11T21:55:01.654Z,93.10
2019-02-11T21:57:42.045Z,93.00
2019-02-11T22:00:22.428Z,93.10
2019-02-11T22:03:02.823Z,93.00
2019-02-11T22:05:43.042Z,93.00
2019-02-11T22:08:22.904Z,93.00
2019-02-11T22:11:02.841Z,93.20
2019-02-11T22:13:43.947Z,93.10
2019-02-11T22:16:24.348Z,92.90
2019-02-11T22:19:04.504Z,92.90
2019-02-11T22:21:44.457Z,93.00
2019-02-11T22:24:24.800Z,92.80
2019-02-11T22:27:04.608Z,92.80
2019-02-11T22:29:44.517Z,92.80
2019-02-11T22:32:24.651Z,92.50
2019-02-11T22:35:04.976Z,92.80
2019-02-11T22:37:45.033Z,92.90
2019-02-11T22:40:25.158Z,92.80
2019-02-11T22:43:05.066Z,93.00
2019-02-11T22:45:45.037Z,93.00
2019-02-11T22:48:25.394Z,93.00
2019-02-11T22:51:05.296Z,91.70
2019-02-11T22:53:45.632Z,91.00
2019-02-11T22:56:27.837Z,91.60
2019-02-11T22:59:07.705Z,91.80
2019-02-11T23:01:47.745Z,92.20
2019-02-11T23:04:28.155Z,92.00
2019-02-11T23:07:08.259Z,91.70
2019-02-11T23:09:48.588Z,91.50
2019-02-11T23:12:28.465Z,91.30
2019-02-11T23:15:08.545Z,91.30
2019-02-11T23:17:48.644Z,91.20
2019-02-11T23:20:28.776Z,91.50
2019-02-11T23:23:08.886Z,91.80
2019-02-11T23:25:49.029Z,92.00
2019-02-11T23:28:30.402Z,91.90
2019-02-11T23:31:10.409Z,92.10
2019-02-11T23:33:50.861Z,92.20
2019-02-11T23:36:30.836Z,92.30
2019-02-11T23:39:14.012Z,92.40
2019-02-11T23:41:54.517Z,92.80
2019-02-11T23:44:34.549Z,92.60
2019-02-11T23:47:14.658Z,92.70
2019-02-11T23:49:54.753Z,93.00
2019-02-11T23:52:34.860Z,93.10
2019-02-11T23:55:14.873Z,93.00
2019-02-11T23:57:54.978Z,93.10
